Time;durP1;ratioP1;P1;durP2;ratioP2;P2;SDS_P1;SDS_P2;PMS_P1;PMS_P2;Temp;Humidity;BMP_temperature;BMP_pressure;BME280_temperature;BME280_humidity;BME280_pressure;Samples;Min_cycle;Max_cycle;Signal;HPM_P1;HPM_P2
2023/08/31 00:01:11;;;;;;;16.30;10.30;;;;;;;28.62;40.59;99433.34;108188;1253;59504;-69
2023/08/31 00:03:39;;;;;;;13.40;9.90;;;;;;;28.23;41.25;99430.06;107978;1252;73078;-68
2023/08/31 00:06:07;;;;;;;19.90;10.40;;;;;;;27.81;42.08;99433.48;108153;1253;68846;-68
2023/08/31 00:08:35;;;;;;;16.90;10.40;;;;;;;28.35;41.12;99434.86;108188;1253;72696;-67
2023/08/31 00:11:02;;;;;;;23.60;10.70;;;;;;;28.53;40.73;99437.71;108251;1256;60412;-67
2023/08/31 00:13:30;;;;;;;23.00;10.70;;;;;;;28.54;40.79;99436.20;108203;1253;59133;-67
2023/08/31 00:15:58;;;;;;;20.30;10.30;;;;;;;28.47;40.94;99434.92;108182;1253;71180;-66
2023/08/31 00:18:26;;;;;;;17.20;10.30;;;;;;;28.47;40.98;99432.39;108181;1252;70291;-67
2023/08/31 00:20:53;;;;;;;23.20;11.00;;;;;;;28.31;41.27;99434.10;108229;1253;72500;-68
2023/08/31 00:23:20;;;;;;;24.50;11.10;;;;;;;28.31;41.40;99432.30;108169;1253;61812;-67
2023/08/31 00:25:48;;;;;;;18.70;11.00;;;;;;;28.39;41.10;99427.73;108180;1253;60405;-67
2023/08/31 00:28:18;;;;;;;19.50;10.10;;;;;;;28.43;41.09;99433.02;108081;1253;72140;-67
2023/08/31 00:30:46;;;;;;;15.20;10.10;;;;;;;28.24;41.55;99431.89;108053;1253;69273;-66
2023/08/31 00:33:15;;;;;;;18.40;10.70;;;;;;;28.20;41.87;99431.31;108083;1253;71784;-67
2023/08/31 00:35:45;;;;;;;17.00;10.60;;;;;;;27.98;42.03;99432.22;108043;1253;60390;-67
2023/08/31 00:38:16;;;;;;;27.10;10.90;;;;;;;27.95;42.10;99431.66;108130;1253;60381;-68
2023/08/31 00:40:47;;;;;;;18.00;10.50;;;;;;;28.16;42.10;99430.77;108052;1253;72826;-68
2023/08/31 00:43:17;;;;;;;16.70;10.40;;;;;;;28.03;42.14;99426.89;108068;1253;69176;-68
2023/08/31 00:45:46;;;;;;;16.90;10.80;;;;;;;28.07;41.83;99425.86;108166;1253;71250;-67
2023/08/31 00:48:15;;;;;;;20.40;11.00;;;;;;;28.15;41.69;99427.59;108054;1254;61726;-67
2023/08/31 00:50:45;;;;;;;19.50;10.10;;;;;;;28.04;42.11;99432.77;108189;1253;60007;-67
2023/08/31 00:53:13;;;;;;;;;;;;;;;28.29;41.63;99427.77;108062;1253;73065;-67
2023/08/31 00:55:41;;;;;;;15.50;10.00;;;;;;;28.14;42.07;99428.65;108020;1253;69553;-67
2023/08/31 00:58:08;;;;;;;16.30;9.80;;;;;;;27.98;42.24;99424.98;107930;1253;71751;-66
2023/08/31 01:01:04;;;;;;;18.50;10.10;;;;;;;28.06;41.92;99426.42;107991;1257;61662;-67
2023/08/31 01:03:53;;;;;;;18.60;10.20;;;;;;;28.00;42.15;99422.55;108130;1253;60719;-67
2023/08/31 01:06:24;;;;;;;17.40;10.40;;;;;;;28.13;41.53;99420.44;108177;1253;72831;-68
2023/08/31 01:09:03;;;;;;;21.30;9.80;;;;;;;28.15;41.37;99422.65;108172;1256;69984;-67
2023/08/31 01:11:33;;;;;;;17.50;10.60;;;;;;;27.87;41.64;99419.86;108098;1253;71454;-67
2023/08/31 01:14:07;;;;;;;19.30;10.90;;;;;;;27.78;41.62;99419.48;108091;1255;60476;-67
2023/08/31 01:16:36;;;;;;;15.50;9.70;;;;;;;27.64;42.11;99418.28;108095;1253;60021;-67
2023/08/31 01:19:04;;;;;;;21.60;10.40;;;;;;;27.55;41.92;99418.27;107995;1259;73337;-67
2023/08/31 01:21:37;;;;;;;19.30;10.00;;;;;;;27.44;41.82;99418.30;108018;1260;69846;-67
2023/08/31 01:24:04;;;;;;;16.10;10.50;;;;;;;27.30;42.22;99413.77;107979;1260;72450;-67
2023/08/31 01:26:32;;;;;;;18.00;9.40;;;;;;;27.25;42.13;99415.48;107948;1253;60726;-67
2023/08/31 01:28:59;;;;;;;20.40;9.60;;;;;;;27.25;42.31;99418.73;107940;1253;59955;-66
2023/08/31 01:31:26;;;;;;;19.70;10.40;;;;;;;27.09;41.97;99418.67;108073;1260;71787;-67
2023/08/31 01:33:54;;;;;;;19.10;9.80;;;;;;;27.04;42.34;99416.13;108156;1253;70452;-67
2023/08/31 01:36:29;;;;;;;16.60;10.00;;;;;;;27.32;42.14;99411.39;107964;1253;71139;-67
2023/08/31 01:39:12;;;;;;;14.60;9.10;;;;;;;27.30;41.92;99409.84;108234;1251;62198;-67
2023/08/31 01:41:40;;;;;;;15.60;10.30;;;;;;;27.30;41.55;99407.60;108276;1251;60293;-64
2023/08/31 01:44:08;;;;;;;16.10;9.90;;;;;;;27.28;41.73;99408.65;108077;1256;73104;-68
2023/08/31 01:46:36;;;;;;;15.10;10.10;;;;;;;27.27;41.61;99411.95;108097;1253;70328;-67
2023/08/31 01:49:05;;;;;;;16.50;9.70;;;;;;;27.34;41.56;99405.02;108135;1251;71723;-65
2023/08/31 01:51:32;;;;;;;15.90;9.90;;;;;;;27.38;41.78;99402.73;108297;1251;60395;-67
2023/08/31 01:54:00;;;;;;;21.00;10.10;;;;;;;27.36;41.74;99401.20;108176;1251;60293;-67
2023/08/31 01:56:27;;;;;;;21.40;10.50;;;;;;;27.35;42.30;99407.06;108106;1251;73788;-66
2023/08/31 01:58:55;;;;;;;17.90;9.80;;;;;;;27.41;41.65;99406.37;108028;1251;69006;-67
2023/08/31 02:01:22;;;;;;;13.20;10.00;;;;;;;27.32;41.98;99408.67;108157;1253;72474;-67
2023/08/31 02:03:49;;;;;;;19.50;10.90;;;;;;;27.07;42.56;99413.42;108061;1253;60418;-67
2023/08/31 02:06:18;;;;;;;16.80;10.10;;;;;;;27.09;42.47;99416.07;108208;1253;60319;-67
2023/08/31 02:08:47;;;;;;;18.40;9.60;;;;;;;26.83;42.96;99420.41;108237;1251;73763;-66
2023/08/31 02:11:17;;;;;;;18.20;10.50;;;;;;;26.74;43.18;99421.25;108185;1251;70053;-67
2023/08/31 02:13:45;;;;;;;23.90;10.80;;;;;;;26.61;43.07;99420.10;108162;1251;72640;-67
2023/08/31 02:16:12;;;;;;;26.60;10.60;;;;;;;26.58;43.43;99428.47;108187;1254;61725;-66
2023/08/31 02:18:40;;;;;;;15.60;10.30;;;;;;;26.59;43.22;99428.05;108164;1256;60284;-67
2023/08/31 02:21:07;;;;;;;16.80;10.70;;;;;;;26.87;43.14;99432.20;108068;1253;73862;-67
2023/08/31 02:23:35;;;;;;;23.10;10.20;;;;;;;26.97;42.92;99433.98;108125;1251;69259;-68
2023/08/31 02:26:02;;;;;;;15.90;10.00;;;;;;;27.00;42.39;99430.12;108228;1252;71399;-67
2023/08/31 02:28:30;;;;;;;13.90;8.90;;;;;;;27.12;42.25;99428.48;108108;1253;61636;-67
2023/08/31 02:31:01;;;;;;;17.80;9.40;;;;;;;27.23;41.84;99424.19;108267;1251;60158;-67
2023/08/31 02:33:30;;;;;;;16.30;8.50;;;;;;;27.16;41.74;99426.64;108275;1253;72620;-67
2023/08/31 02:35:58;;;;;;;13.60;9.00;;;;;;;26.99;42.28;99425.94;108122;1256;70357;-68
2023/08/31 02:38:26;;;;;;;15.80;8.80;;;;;;;26.93;41.94;99424.76;108147;1256;71906;-67
2023/08/31 02:40:53;;;;;;;13.40;9.40;;;;;;;27.17;41.83;99423.44;108254;1253;60411;-66
2023/08/31 02:43:20;;;;;;;12.60;8.90;;;;;;;27.17;41.38;99428.52;108199;1256;60401;-67
2023/08/31 02:45:49;;;;;;;13.70;8.70;;;;;;;27.27;41.32;99429.33;108262;1251;74926;-67
2023/08/31 02:48:16;;;;;;;15.20;9.00;;;;;;;27.66;39.96;99434.73;108248;1254;70625;-67
2023/08/31 02:50:44;;;;;;;14.40;9.40;;;;;;;27.74;39.35;99434.19;108167;1256;73146;-67
2023/08/31 02:53:12;;;;;;;15.10;8.30;;;;;;;27.73;39.73;99431.56;108143;1251;61664;-67
2023/08/31 02:55:42;;;;;;;22.90;8.50;;;;;;;27.75;39.91;99432.53;108199;1256;60141;-67
2023/08/31 02:58:09;;;;;;;11.80;7.60;;;;;;;27.72;39.50;99433.61;108118;1251;73838;-66
2023/08/31 03:00:42;;;;;;;19.90;9.70;;;;;;;27.69;39.52;99435.27;108147;1251;70452;-67
2023/08/31 03:03:09;;;;;;;11.10;8.00;;;;;;;27.80;38.78;99433.11;108229;1251;72705;-68
2023/08/31 03:05:38;;;;;;;14.80;9.20;;;;;;;27.83;38.58;99436.50;108159;1253;60397;-68
2023/08/31 03:08:05;;;;;;;17.10;9.00;;;;;;;27.68;38.69;99434.55;108165;1251;60191;-67
2023/08/31 03:10:33;;;;;;;21.60;8.60;;;;;;;27.67;38.17;99431.52;108118;1252;74318;-68
2023/08/31 03:13:00;;;;;;;18.40;8.80;;;;;;;27.76;38.33;99434.48;108240;1251;70179;-67
2023/08/31 03:15:28;;;;;;;19.10;8.50;;;;;;;27.71;38.15;99438.42;108017;1253;72629;-67
2023/08/31 03:17:55;;;;;;;16.40;8.90;;;;;;;27.73;38.21;99439.46;108165;1251;60328;-67
2023/08/31 03:20:24;;;;;;;17.40;8.50;;;;;;;27.76;38.29;99435.38;108100;1251;60194;-68
2023/08/31 03:22:52;;;;;;;18.30;9.50;;;;;;;27.77;37.93;99433.77;108169;1251;72804;-68
2023/08/31 03:25:19;;;;;;;18.90;8.60;;;;;;;27.77;37.49;99434.48;108132;1254;69960;-68
2023/08/31 03:27:47;;;;;;;13.90;8.70;;;;;;;27.82;37.88;99435.42;108065;1254;72724;-68
2023/08/31 03:30:15;;;;;;;14.30;8.90;;;;;;;27.73;38.11;99433.05;108061;1254;61720;-68
2023/08/31 03:32:42;;;;;;;20.40;8.30;;;;;;;27.67;38.38;99432.61;108085;1257;60418;-68
2023/08/31 03:35:10;;;;;;;13.70;8.40;;;;;;;27.75;37.50;99430.66;108139;1256;73889;-68
2023/08/31 03:37:37;;;;;;;16.40;8.50;;;;;;;27.98;37.05;99428.90;108117;1254;70343;-69
2023/08/31 03:40:06;;;;;;;16.90;8.90;;;;;;;28.04;36.81;99430.91;107949;1254;73114;-68
2023/08/31 03:42:35;;;;;;;21.10;8.30;;;;;;;28.13;36.56;99434.77;108098;1254;60403;-68
2023/08/31 03:45:03;;;;;;;16.00;8.20;;;;;;;28.36;36.65;99431.17;108163;1254;59209;-67
2023/08/31 03:47:31;;;;;;;12.20;7.80;;;;;;;28.57;36.01;99433.98;108156;1255;73035;-66
2023/08/31 03:49:58;;;;;;;15.10;8.00;;;;;;;28.89;35.30;99428.93;108163;1256;69932;-66
2023/08/31 03:52:26;;;;;;;11.80;7.60;;;;;;;29.14;35.54;99434.91;108125;1258;72442;-68
2023/08/31 03:54:53;;;;;;;13.50;8.20;;;;;;;29.19;34.93;99437.91;108164;1251;60582;-68
2023/08/31 03:57:20;;;;;;;17.90;8.40;;;;;;;29.39;34.61;99439.06;108305;1251;60319;-69
2023/08/31 03:59:49;;;;;;;14.90;8.30;;;;;;;29.41;34.49;99436.03;108226;1256;72637;-68
2023/08/31 04:02:17;;;;;;;15.60;8.20;;;;;;;29.42;34.16;99436.33;108208;1256;68936;-67
2023/08/31 04:04:44;;;;;;;18.10;7.70;;;;;;;29.55;33.96;99437.23;108105;1257;72727;-67
2023/08/31 04:07:13;;;;;;;14.80;7.80;;;;;;;29.93;33.15;99433.10;108179;1255;60478;-68
2023/08/31 04:09:40;;;;;;;19.50;7.90;;;;;;;30.24;32.36;99436.30;108154;1251;60451;-69
2023/08/31 04:12:08;;;;;;;18.50;8.20;;;;;;;30.51;32.97;99435.88;108123;1252;73067;-69
2023/08/31 04:14:36;;;;;;;16.50;7.60;;;;;;;30.63;32.18;99441.37;108185;1251;68837;-68
2023/08/31 04:17:04;;;;;;;14.00;7.50;;;;;;;30.59;32.56;99436.80;108374;1251;72524;-68
2023/08/31 04:19:32;;;;;;;13.90;7.90;;;;;;;30.46;32.70;99435.96;108196;1251;60406;-68
2023/08/31 04:21:59;;;;;;;25.80;7.90;;;;;;;30.13;32.16;99439.91;108206;1251;60251;-66
2023/08/31 04:24:27;;;;;;;20.80;7.80;;;;;;;30.17;32.70;99439.09;108283;1257;73928;-67
2023/08/31 04:26:55;;;;;;;16.00;7.90;;;;;;;30.19;32.42;99443.36;108176;1251;69993;-68
2023/08/31 04:29:23;;;;;;;14.00;7.70;;;;;;;30.34;32.18;99442.65;108148;1251;72307;-67
2023/08/31 04:31:50;;;;;;;20.80;7.90;;;;;;;30.62;32.12;99443.33;108178;1253;60392;-67
2023/08/31 04:34:18;;;;;;;15.10;7.20;;;;;;;30.21;32.10;99445.02;108167;1256;60316;-68
2023/08/31 04:36:45;;;;;;;23.70;8.20;;;;;;;29.87;33.27;99443.87;108172;1251;73806;-68
2023/08/31 04:39:13;;;;;;;12.60;7.60;;;;;;;29.68;33.45;99452.42;108034;1251;68850;-69
2023/08/31 04:41:40;;;;;;;14.10;7.60;;;;;;;29.72;33.58;99451.52;108166;1253;72642;-67
2023/08/31 04:44:08;;;;;;;22.70;7.00;;;;;;;29.52;33.83;99451.81;108134;1251;60306;-68
2023/08/31 04:46:35;;;;;;;12.00;7.40;;;;;;;29.39;33.57;99456.27;108266;1256;60328;-67
2023/08/31 04:49:03;;;;;;;17.80;7.50;;;;;;;29.32;34.08;99457.77;108095;1251;72921;-67
2023/08/31 04:51:32;;;;;;;17.60;7.70;;;;;;;29.45;33.46;99462.23;108252;1251;70524;-68
2023/08/31 04:54:00;;;;;;;15.80;7.30;;;;;;;29.22;33.64;99458.44;108141;1251;72704;-67
2023/08/31 04:56:30;;;;;;;18.20;7.50;;;;;;;29.04;34.13;99458.58;108154;1251;60369;-66
2023/08/31 04:58:57;;;;;;;13.10;7.50;;;;;;;29.23;33.58;99458.48;108284;1251;60270;-66
2023/08/31 05:01:25;;;;;;;13.60;7.10;;;;;;;29.69;33.12;99455.00;108214;1256;73808;-69
2023/08/31 05:03:52;;;;;;;16.90;7.10;;;;;;;30.07;31.94;99458.25;108230;1251;69939;-68
2023/08/31 05:06:20;;;;;;;14.70;7.30;;;;;;;30.21;31.63;99455.61;108156;1254;71453;-68
2023/08/31 05:08:48;;;;;;;14.60;7.00;;;;;;;30.72;31.04;99461.18;108200;1251;60354;-68
2023/08/31 05:11:15;;;;;;;15.30;6.60;;;;;;;31.31;30.49;99454.73;108229;1251;61016;-68
2023/08/31 05:13:43;;;;;;;17.50;6.90;;;;;;;32.08;29.13;99458.64;108167;1251;73811;-69
2023/08/31 05:16:10;;;;;;;15.30;6.40;;;;;;;32.58;28.94;99461.94;108191;1251;69310;-69
2023/08/31 05:18:38;;;;;;;14.70;5.70;;;;;;;33.02;27.72;99466.47;108250;1251;71346;-69
2023/08/31 05:21:05;;;;;;;19.50;6.90;;;;;;;33.39;27.39;99459.98;108213;1251;61203;-68
2023/08/31 05:23:33;;;;;;;11.10;6.10;;;;;;;33.70;26.47;99462.88;108153;1256;60285;-68
2023/08/31 05:26:01;;;;;;;20.30;7.00;;;;;;;34.14;26.02;99467.34;108228;1251;73854;-67
2023/08/31 05:28:28;;;;;;;14.30;6.30;;;;;;;34.58;25.52;99469.69;108140;1251;61872;-69
2023/08/31 05:30:57;;;;;;;14.90;6.10;;;;;;;35.02;25.25;99470.04;108290;1254;62794;-68
2023/08/31 05:33:27;;;;;;;11.40;5.20;;;;;;;35.44;24.28;99469.11;108284;1251;60326;-69
2023/08/31 05:35:54;;;;;;;10.90;5.50;;;;;;;35.67;23.93;99472.18;108179;1251;60332;-69
2023/08/31 05:38:23;;;;;;;11.00;5.40;;;;;;;35.82;23.65;99479.67;108305;1251;64896;-70
2023/08/31 05:40:50;;;;;;;10.50;4.40;;;;;;;35.90;23.42;99480.46;108249;1251;61303;-69
2023/08/31 05:43:18;;;;;;;14.40;5.90;;;;;;;36.10;23.36;99478.41;108237;1251;63726;-69
2023/08/31 05:45:46;;;;;;;8.70;4.80;;;;;;;36.45;23.14;99482.02;108278;1253;60414;-68
2023/08/31 05:48:14;;;;;;;14.40;4.80;;;;;;;36.53;22.81;99487.89;108179;1251;60389;-69
2023/08/31 05:50:43;;;;;;;18.80;5.40;;;;;;;36.87;22.42;99490.23;108181;1251;64944;-69
2023/08/31 05:53:10;;;;;;;13.90;5.30;;;;;;;36.97;22.00;99494.73;108078;1252;60385;-70
2023/08/31 05:55:38;;;;;;;10.40;4.70;;;;;;;36.83;22.17;99499.29;108206;1251;63675;-68
2023/08/31 05:58:05;;;;;;;11.20;4.80;;;;;;;36.82;22.03;99501.06;108062;1251;60436;-70
2023/08/31 06:00:33;;;;;;;8.30;4.20;;;;;;;37.14;22.10;99505.26;108282;1251;60204;-69
2023/08/31 06:03:01;;;;;;;11.60;4.30;;;;;;;37.30;21.64;99510.12;108307;1251;64985;-68
2023/08/31 06:05:30;;;;;;;17.10;5.20;;;;;;;37.03;21.75;99507.35;108200;1251;61518;-68
2023/08/31 06:07:58;;;;;;;17.10;5.50;;;;;;;36.75;22.12;99510.64;108493;1251;63733;-68
2023/08/31 06:10:25;;;;;;;11.00;5.30;;;;;;;36.63;22.22;99510.29;108614;1251;60524;-70
2023/08/31 06:12:53;;;;;;;15.10;4.50;;;;;;;36.47;22.77;99505.05;108613;1251;58303;-69
2023/08/31 06:15:20;;;;;;;12.00;4.70;;;;;;;36.68;22.64;99503.03;108507;1251;63727;-69
2023/08/31 06:17:47;;;;;;;17.00;4.30;;;;;;;36.97;22.11;99509.77;108290;1251;61592;-69
2023/08/31 06:20:15;;;;;;;10.20;4.50;;;;;;;36.76;22.71;99504.63;108228;1251;74804;-67
2023/08/31 06:22:42;;;;;;;14.30;5.00;;;;;;;37.34;22.33;99506.89;108289;1251;60542;-67
2023/08/31 06:25:11;;;;;;;14.50;4.40;;;;;;;37.69;21.56;99507.02;108242;1256;60432;-69
2023/08/31 06:27:42;;;;;;;15.90;4.20;;;;;;;37.43;21.40;99510.08;108125;1257;64964;-68
2023/08/31 06:30:15;;;;;;;14.10;4.70;;;;;;;36.79;21.67;99507.13;108328;1251;61344;-70
2023/08/31 06:32:44;;;;;;;15.70;4.20;;;;;;;36.57;22.39;99509.15;108305;1251;63736;-68
2023/08/31 06:35:12;;;;;;;10.20;4.00;;;;;;;36.68;22.04;99512.70;108257;1251;60412;-70
2023/08/31 06:37:39;;;;;;;7.90;4.20;;;;;;;36.53;22.11;99510.89;108159;1251;60281;-69
2023/08/31 06:40:10;;;;;;;14.80;4.70;;;;;;;36.38;22.08;99511.25;108210;1251;65012;-68
2023/08/31 06:42:38;;;;;;;11.90;4.20;;;;;;;36.55;21.92;99508.52;108156;1251;60796;-69
2023/08/31 06:45:09;;;;;;;12.60;4.40;;;;;;;36.86;21.85;99508.55;108074;1251;63755;-70
2023/08/31 06:47:36;;;;;;;13.80;4.70;;;;;;;37.14;21.33;99507.30;108075;1254;60393;-70
2023/08/31 06:50:05;;;;;;;16.70;4.50;;;;;;;37.52;20.99;99512.15;108065;1251;60405;-69
2023/08/31 06:52:33;;;;;;;12.90;4.40;;;;;;;38.01;20.61;99511.10;108228;1251;65001;-69
2023/08/31 06:55:03;;;;;;;13.60;4.50;;;;;;;38.52;20.36;99508.23;108237;1251;61371;-69
2023/08/31 06:57:30;;;;;;;11.30;4.20;;;;;;;38.88;19.96;99506.08;108239;1255;63760;-69
2023/08/31 06:59:57;;;;;;;19.70;5.00;;;;;;;38.91;19.98;99505.77;108338;1252;59151;-69
2023/08/31 07:02:28;;;;;;;12.20;4.60;;;;;;;39.33;19.70;99508.43;108185;1251;60461;-69
2023/08/31 07:04:56;;;;;;;14.10;4.20;;;;;;;39.87;19.28;99507.23;108244;1255;63889;-69
2023/08/31 07:07:24;;;;;;;9.80;4.00;;;;;;;39.93;18.80;99512.77;108189;1251;60178;-69
2023/08/31 07:09:52;;;;;;;13.30;4.60;;;;;;;39.53;19.09;99517.23;108223;1251;62651;-69
2023/08/31 07:12:19;;;;;;;8.90;4.00;;;;;;;39.23;19.50;99511.52;108156;1254;60537;-69
2023/08/31 07:14:47;;;;;;;10.20;3.60;;;;;;;38.49;20.24;99514.47;108265;1251;59767;-69
2023/08/31 07:17:19;;;;;;;10.60;3.90;;;;;;;38.50;20.47;99514.63;108287;1251;66156;-68
2023/08/31 07:19:48;;;;;;;10.00;3.70;;;;;;;38.82;20.23;99509.69;108316;1251;60585;-69
2023/08/31 07:22:15;;;;;;;16.30;4.10;;;;;;;38.58;20.33;99510.04;108295;1251;63721;-69
2023/08/31 07:24:44;;;;;;;9.70;3.70;;;;;;;38.75;20.28;99510.31;108271;1251;60309;-69
2023/08/31 07:27:11;;;;;;;17.70;4.30;;;;;;;39.06;20.08;99506.89;108266;1251;60261;-69
2023/08/31 07:29:39;;;;;;;24.00;4.70;;;;;;;39.24;19.95;99510.11;108061;1251;65037;-69
2023/08/31 07:32:06;;;;;;;9.90;4.00;;;;;;;39.56;19.79;99512.88;108292;1255;61316;-69
2023/08/31 07:34:34;;;;;;;9.10;3.60;;;;;;;39.92;19.52;99515.29;108346;1251;63762;-68
2023/08/31 07:37:01;;;;;;;16.10;4.00;;;;;;;40.11;19.17;99515.31;108278;1252;62046;-69
2023/08/31 07:39:29;;;;;;;12.30;3.50;;;;;;;40.31;19.21;99522.11;108279;1251;60149;-69
2023/08/31 07:41:57;;;;;;;16.70;3.90;;;;;;;39.93;19.31;99522.63;108267;1255;63689;-69
2023/08/31 07:44:24;;;;;;;12.00;3.50;;;;;;;39.92;19.34;99520.52;108263;1251;61422;-68
2023/08/31 07:46:52;;;;;;;10.60;4.00;;;;;;;39.84;19.43;99521.02;108274;1251;63792;-68
2023/08/31 07:49:19;;;;;;;14.30;4.10;;;;;;;39.90;19.50;99518.25;108328;1251;60417;-69
2023/08/31 07:51:46;;;;;;;11.90;4.00;;;;;;;40.20;19.44;99518.23;108333;1251;60502;-69
2023/08/31 07:54:21;;;;;;;9.00;4.80;;;;;;;40.54;19.08;99524.66;108203;1251;65248;-68
2023/08/31 07:56:52;;;;;;;17.70;6.60;;;;;;;40.74;19.15;99519.73;108177;1251;61438;-69
2023/08/31 07:59:19;;;;;;;16.20;4.00;;;;;;;41.06;18.63;99515.27;108242;1251;63778;-68
2023/08/31 08:01:47;;;;;;;17.70;4.50;;;;;;;41.34;18.27;99511.02;108108;1251;60434;-69
2023/08/31 08:04:15;;;;;;;17.80;3.50;;;;;;;41.17;18.24;99514.69;108245;1251;60289;-68
2023/08/31 08:06:42;;;;;;;12.30;3.70;;;;;;;40.93;18.32;99510.65;108210;1251;65062;-69
2023/08/31 08:09:10;;;;;;;16.30;3.10;;;;;;;40.64;18.95;99502.80;108220;1251;60458;-68
2023/08/31 08:11:37;;;;;;;7.50;3.90;;;;;;;40.85;19.08;99505.96;108222;1251;63241;-70
2023/08/31 08:14:05;;;;;;;12.00;3.40;;;;;;;41.26;18.62;99502.44;108280;1251;60306;-68
2023/08/31 08:16:35;;;;;;;9.70;2.90;;;;;;;41.60;18.18;99503.36;108342;1251;60143;-68
2023/08/31 08:19:03;;;;;;;14.40;3.50;;;;;;;41.49;18.13;99502.30;108253;1251;65169;-69
2023/08/31 08:21:30;;;;;;;10.30;3.20;;;;;;;41.06;18.64;99500.63;108200;1251;61373;-69
2023/08/31 08:23:58;;;;;;;13.10;3.30;;;;;;;40.52;18.99;99507.14;108198;1251;63923;-69
2023/08/31 08:26:25;;;;;;;13.70;3.30;;;;;;;39.79;19.43;99507.89;108064;1251;60223;-69
2023/08/31 08:28:54;;;;;;;12.20;3.50;;;;;;;39.29;19.98;99508.77;108147;1254;60335;-69
2023/08/31 08:31:22;;;;;;;11.40;3.20;;;;;;;39.01;20.52;99509.09;108206;1254;65030;-69
2023/08/31 08:33:52;;;;;;;9.70;2.90;;;;;;;38.71;20.81;99507.52;108189;1254;60411;-69
2023/08/31 08:36:19;;;;;;;17.30;4.10;;;;;;;38.68;20.75;99508.91;108062;1254;63773;-69
2023/08/31 08:38:47;;;;;;;13.60;3.30;;;;;;;38.75;20.84;99503.65;108146;1254;60435;-69
2023/08/31 08:41:15;;;;;;;12.30;3.30;;;;;;;38.68;20.94;99512.64;108133;1252;60321;-69
2023/08/31 08:43:43;;;;;;;11.10;3.80;;;;;;;38.43;21.23;99513.15;108139;1254;64941;-70
2023/08/31 08:46:10;;;;;;;11.70;3.60;;;;;;;38.58;21.31;99504.37;108172;1253;61326;-69
2023/08/31 08:48:38;;;;;;;21.20;4.10;;;;;;;38.73;21.07;99498.90;108084;1254;62674;-69
2023/08/31 08:51:05;;;;;;;12.90;3.80;;;;;;;38.93;20.91;99492.82;108162;1253;60412;-69
2023/08/31 08:53:33;;;;;;;13.70;3.40;;;;;;;39.01;20.80;99492.01;108156;1253;60517;-69
2023/08/31 08:56:00;;;;;;;11.00;3.30;;;;;;;39.18;20.54;99494.40;108089;1254;63894;-69
2023/08/31 08:58:28;;;;;;;10.60;4.10;;;;;;;39.71;20.21;99495.49;108122;1258;60414;-69
2023/08/31 09:00:56;;;;;;;15.70;3.50;;;;;;;39.58;20.11;99498.14;108150;1252;63813;-69
2023/08/31 09:03:24;;;;;;;14.80;3.70;;;;;;;39.72;20.15;99494.16;108214;1253;60437;-69
2023/08/31 09:05:54;;;;;;;11.00;3.90;;;;;;;40.18;19.73;99497.38;108218;1254;60475;-69
2023/08/31 09:08:28;;;;;;;13.30;3.30;;;;;;;40.27;19.57;99495.29;108113;1254;73946;-69
2023/08/31 09:10:58;;;;;;;10.30;3.00;;;;;;;40.22;19.56;99494.36;108209;1256;72586;-69
2023/08/31 09:13:29;;;;;;;18.70;3.50;;;;;;;40.25;19.45;99497.02;108243;1256;71899;-69
2023/08/31 09:15:57;;;;;;;10.50;2.90;;;;;;;40.08;19.54;99497.09;108195;1253;60335;-69
2023/08/31 09:18:27;;;;;;;9.80;3.00;;;;;;;39.99;19.49;99499.73;108281;1253;60414;-70
2023/08/31 09:20:58;;;;;;;13.40;3.00;;;;;;;39.81;19.67;99500.04;108170;1252;64933;-69
2023/08/31 09:23:26;;;;;;;10.70;2.90;;;;;;;40.06;19.28;99498.73;108205;1256;61531;-69
2023/08/31 09:25:57;;;;;;;10.10;3.30;;;;;;;40.30;19.13;99495.19;108156;1254;64096;-69
2023/08/31 09:28:27;;;;;;;14.00;3.00;;;;;;;40.49;19.11;99496.39;108163;1253;60479;-69
2023/08/31 09:31:06;;;;;;;9.70;3.00;;;;;;;40.76;18.33;99496.34;108106;1253;60483;-69
2023/08/31 09:33:34;;;;;;;11.40;3.20;;;;;;;41.06;18.13;99496.16;108101;1253;64931;-68
2023/08/31 09:36:03;;;;;;;12.60;3.20;;;;;;;41.37;17.81;99495.11;108231;1253;60348;-69
2023/08/31 09:38:31;;;;;;;14.70;3.70;;;;;;;41.59;17.25;99501.10;108187;1252;62437;-68
2023/08/31 09:41:06;;;;;;;14.00;3.70;;;;;;;41.79;16.95;99501.70;107994;1252;245899;-70
2023/08/31 09:45:35;;;;;;;17.80;3.70;;;;;;;40.42;18.12;99493.75;104937;1289;601289;-70
2023/08/31 09:48:05;;;;;;;;;;;;;;;41.31;16.84;99499.85;107272;1266;58733;-69
2023/08/31 09:50:34;;;;;;;9.70;3.20;;;;;;;41.00;17.21;99498.35;107274;1266;59232;-69
2023/08/31 09:53:03;;;;;;;12.90;3.30;;;;;;;41.06;17.21;99495.00;107269;1269;62006;-68
2023/08/31 09:55:32;;;;;;;10.50;2.60;;;;;;;40.91;17.04;99495.02;107264;1267;61392;-70
2023/08/31 09:58:00;;;;;;;9.80;2.90;;;;;;;40.91;16.80;99496.65;107291;1267;62507;-68
2023/08/31 10:00:41;;;;;;;10.10;3.10;;;;;;;41.12;16.62;99502.13;107117;1263;59982;-68
2023/08/31 10:03:11;;;;;;;10.60;3.10;;;;;;;40.98;16.62;99500.05;107308;1267;59142;-69
2023/08/31 10:05:39;;;;;;;8.20;3.10;;;;;;;40.87;16.76;99508.02;107421;1264;63376;-69
2023/08/31 10:08:07;;;;;;;10.40;2.90;;;;;;;40.78;17.00;99504.09;107315;1267;70075;-69
2023/08/31 10:10:35;;;;;;;10.70;3.60;;;;;;;41.08;16.78;99509.74;107417;1263;63811;-69
2023/08/31 10:13:03;;;;;;;7.90;2.70;;;;;;;41.52;16.33;99507.88;107370;1263;60213;-69
2023/08/31 10:15:35;;;;;;;11.20;2.80;;;;;;;41.91;15.79;99507.49;107337;1268;59737;-69
2023/08/31 10:18:04;;;;;;;9.20;3.20;;;;;;;41.52;15.86;99507.76;107447;1264;62900;-69
2023/08/31 10:20:33;;;;;;;9.70;2.50;;;;;;;40.96;16.15;99506.79;107500;1263;60275;-69
2023/08/31 10:23:04;;;;;;;7.60;3.00;;;;;;;40.61;16.64;99508.97;107364;1265;62454;-69
2023/08/31 10:25:50;;;;;;;11.90;3.20;;;;;;;40.63;16.58;99509.74;107414;1265;59625;-69
2023/08/31 10:28:25;;;;;;;7.30;2.90;;;;;;;40.67;16.24;99509.92;107335;1264;59966;-69
2023/08/31 10:31:10;;;;;;;11.20;2.90;;;;;;;40.32;16.91;99508.14;107303;1268;64212;-69
2023/08/31 10:33:44;;;;;;;9.10;2.60;;;;;;;40.26;16.94;99507.02;107308;1264;60504;-69
2023/08/31 10:36:16;;;;;;;7.60;3.10;;;;;;;40.38;17.39;99506.54;107339;1264;63762;-69
2023/08/31 10:38:56;;;;;;;8.90;2.70;;;;;;;40.55;17.21;99507.16;107257;1266;59639;-69
2023/08/31 10:41:24;;;;;;;9.40;2.90;;;;;;;40.24;16.68;99506.83;107257;1266;59699;-69
2023/08/31 10:43:57;;;;;;;15.40;3.20;;;;;;;39.59;16.50;99510.55;107247;1266;62887;-69
2023/08/31 10:46:32;;;;;;;13.80;3.20;;;;;;;39.35;16.71;99503.88;107234;1266;61351;-70
2023/08/31 10:49:09;;;;;;;7.40;3.30;;;;;;;39.14;16.77;99500.98;107244;1267;64379;-69
2023/08/31 10:51:38;;;;;;;8.40;3.00;;;;;;;39.35;16.86;99504.27;107267;1267;59927;-69
2023/08/31 10:54:13;;;;;;;6.10;2.90;;;;;;;39.59;16.53;99498.32;107276;1267;59385;-69
2023/08/31 10:57:10;;;;;;;9.00;3.00;;;;;;;39.59;16.63;99493.80;107219;1270;62878;-70
2023/08/31 10:59:47;;;;;;;6.60;2.90;;;;;;;39.81;16.46;99496.57;107199;1270;61407;-69
2023/08/31 11:02:37;;;;;;;16.20;3.60;;;;;;;40.01;16.14;99490.77;107615;1259;62947;-70
2023/08/31 11:05:17;;;;;;;15.20;2.90;;;;;;;39.92;16.08;99492.73;107609;1259;59548;-71
2023/08/31 11:07:49;;;;;;;20.30;3.90;;;;;;;39.94;16.03;99493.41;107591;1259;59757;-70
2023/08/31 11:10:22;;;;;;;24.10;4.10;;;;;;;40.07;16.36;99497.25;107636;1259;62845;-67
2023/08/31 11:12:52;;;;;;;10.10;3.30;;;;;;;39.84;16.52;99500.83;107636;1263;60156;-69
2023/08/31 11:15:23;;;;;;;20.30;4.10;;;;;;;39.18;17.15;99498.35;107587;1260;63872;-70
2023/08/31 11:17:51;;;;;;;13.70;3.40;;;;;;;38.61;17.46;99499.36;107586;1259;59582;-69
2023/08/31 11:20:23;;;;;;;8.50;3.20;;;;;;;38.50;17.60;99496.29;107619;1259;59427;-69
2023/08/31 11:22:52;;;;;;;9.00;3.10;;;;;;;38.50;17.80;99490.52;107699;1261;63037;-69
2023/08/31 11:25:23;;;;;;;16.10;4.00;;;;;;;38.85;17.79;99486.65;107517;1261;61386;-70
2023/08/31 11:27:55;;;;;;;11.20;3.30;;;;;;;38.60;18.07;99491.52;107655;1263;63954;-69